sensor_id;sensor_type;location;lat;lon;timestamp;temperature;humidity
18287;DHT22;9269;50.838;12.094;2022-09-21T00:01:38;12.90;47.00
18287;DHT22;9269;50.838;12.094;2022-09-21T00:04:07;12.80;46.90
18287;DHT22;9269;50.838;12.094;2022-09-21T00:06:36;12.90;46.80
18287;DHT22;9269;50.838;12.094;2022-09-21T00:09:05;12.80;46.80
18287;DHT22;9269;50.838;12.094;2022-09-21T00:11:35;12.80;46.60
18287;DHT22;9269;50.838;12.094;2022-09-21T00:14:06;12.80;47.10
18287;DHT22;9269;50.838;12.094;2022-09-21T00:16:38;12.80;47.00
18287;DHT22;9269;50.838;12.094;2022-09-21T00:19:07;12.80;47.00
18287;DHT22;9269;50.838;12.094;2022-09-21T00:21:37;12.80;46.80
18287;DHT22;9269;50.838;12.094;2022-09-21T00:24:06;12.80;46.90
18287;DHT22;9269;50.838;12.094;2022-09-21T00:26:36;12.70;46.70
18287;DHT22;9269;50.838;12.094;2022-09-21T00:29:05;12.70;48.40
18287;DHT22;9269;50.838;12.094;2022-09-21T00:31:34;12.70;47.20
18287;DHT22;9269;50.838;12.094;2022-09-21T00:34:05;12.70;48.20
18287;DHT22;9269;50.838;12.094;2022-09-21T00:36:36;12.60;48.20
18287;DHT22;9269;50.838;12.094;2022-09-21T00:39:05;12.70;48.30
18287;DHT22;9269;50.838;12.094;2022-09-21T00:41:34;12.60;48.20
18287;DHT22;9269;50.838;12.094;2022-09-21T00:44:27;12.60;48.50
18287;DHT22;9269;50.838;12.094;2022-09-21T00:46:59;12.60;48.30
18287;DHT22;9269;50.838;12.094;2022-09-21T00:49:31;12.60;48.10
18287;DHT22;9269;50.838;12.094;2022-09-21T00:52:01;12.60;48.00
18287;DHT22;9269;50.838;12.094;2022-09-21T00:54:33;12.60;47.90
18287;DHT22;9269;50.838;12.094;2022-09-21T00:57:04;12.60;48.10
18287;DHT22;9269;50.838;12.094;2022-09-21T00:59:36;12.60;48.40
18287;DHT22;9269;50.838;12.094;2022-09-21T01:02:05;12.60;48.10
18287;DHT22;9269;50.838;12.094;2022-09-21T01:04:36;12.50;48.10
18287;DHT22;9269;50.838;12.094;2022-09-21T01:07:09;12.60;48.40
18287;DHT22;9269;50.838;12.094;2022-09-21T01:09:39;12.50;48.30
18287;DHT22;9269;50.838;12.094;2022-09-21T01:12:21;12.50;48.50
18287;DHT22;9269;50.838;12.094;2022-09-21T01:15:06;12.40;48.10
18287;DHT22;9269;50.838;12.094;2022-09-21T01:17:43;12.40;48.30
18287;DHT22;9269;50.838;12.094;2022-09-21T01:20:44;12.40;48.40
18287;DHT22;9269;50.838;12.094;2022-09-21T01:23:31;12.40;48.30
18287;DHT22;9269;50.838;12.094;2022-09-21T01:26:08;12.40;48.30
18287;DHT22;9269;50.838;12.094;2022-09-21T01:28:56;12.40;48.30
18287;DHT22;9269;50.838;12.094;2022-09-21T01:31:32;12.40;48.30
18287;DHT22;9269;50.838;12.094;2022-09-21T01:34:07;12.30;48.60
18287;DHT22;9269;50.838;12.094;2022-09-21T01:36:39;12.40;48.30
18287;DHT22;9269;50.838;12.094;2022-09-21T01:39:12;12.30;48.50
18287;DHT22;9269;50.838;12.094;2022-09-21T01:41:43;12.20;48.50
18287;DHT22;9269;50.838;12.094;2022-09-21T01:44:18;12.30;48.40
18287;DHT22;9269;50.838;12.094;2022-09-21T01:46:51;12.30;48.50
18287;DHT22;9269;50.838;12.094;2022-09-21T01:49:22;12.30;48.30
18287;DHT22;9269;50.838;12.094;2022-09-21T01:51:55;12.20;48.50
18287;DHT22;9269;50.838;12.094;2022-09-21T01:54:29;12.10;48.40
18287;DHT22;9269;50.838;12.094;2022-09-21T01:57:06;12.10;48.50
18287;DHT22;9269;50.838;12.094;2022-09-21T01:59:43;12.20;48.50
18287;DHT22;9269;50.838;12.094;2022-09-21T02:02:17;12.20;48.10
18287;DHT22;9269;50.838;12.094;2022-09-21T02:04:46;12.20;48.60
18287;DHT22;9269;50.838;12.094;2022-09-21T02:07:15;12.10;48.70
18287;DHT22;9269;50.838;12.094;2022-09-21T02:09:44;12.20;48.50
18287;DHT22;9269;50.838;12.094;2022-09-21T02:12:14;12.10;48.60
18287;DHT22;9269;50.838;12.094;2022-09-21T02:14:47;12.10;48.30
18287;DHT22;9269;50.838;12.094;2022-09-21T02:17:31;12.10;48.40
18287;DHT22;9269;50.838;12.094;2022-09-21T02:20:08;12.00;48.50
18287;DHT22;9269;50.838;12.094;2022-09-21T02:22:55;12.00;48.80
18287;DHT22;9269;50.838;12.094;2022-09-21T02:25:33;11.90;48.50
18287;DHT22;9269;50.838;12.094;2022-09-21T02:28:07;11.90;48.60
18287;DHT22;9269;50.838;12.094;2022-09-21T02:30:48;11.80;48.20
18287;DHT22;9269;50.838;12.094;2022-09-21T02:33:23;12.10;48.20
18287;DHT22;9269;50.838;12.094;2022-09-21T02:35:57;11.90;48.50
18287;DHT22;9269;50.838;12.094;2022-09-21T02:38:32;11.90;49.00
18287;DHT22;9269;50.838;12.094;2022-09-21T02:41:06;11.90;49.10
18287;DHT22;9269;50.838;12.094;2022-09-21T02:43:43;11.90;48.90
18287;DHT22;9269;50.838;12.094;2022-09-21T02:46:19;11.90;49.00
18287;DHT22;9269;50.838;12.094;2022-09-21T02:48:51;11.80;49.40
18287;DHT22;9269;50.838;12.094;2022-09-21T02:51:25;12.00;49.50
18287;DHT22;9269;50.838;12.094;2022-09-21T02:53:57;11.90;49.30
18287;DHT22;9269;50.838;12.094;2022-09-21T02:56:28;11.70;49.10
18287;DHT22;9269;50.838;12.094;2022-09-21T02:59:01;11.80;48.70
18287;DHT22;9269;50.838;12.094;2022-09-21T03:01:32;11.80;49.00
18287;DHT22;9269;50.838;12.094;2022-09-21T03:04:01;11.70;49.10
18287;DHT22;9269;50.838;12.094;2022-09-21T03:06:29;11.80;49.00
18287;DHT22;9269;50.838;12.094;2022-09-21T03:08:59;11.80;48.90
18287;DHT22;9269;50.838;12.094;2022-09-21T03:11:28;11.80;48.70
18287;DHT22;9269;50.838;12.094;2022-09-21T03:13:56;11.60;48.20
18287;DHT22;9269;50.838;12.094;2022-09-21T03:16:25;11.70;48.20
18287;DHT22;9269;50.838;12.094;2022-09-21T03:18:56;11.60;48.80
18287;DHT22;9269;50.838;12.094;2022-09-21T03:21:24;11.70;48.60
18287;DHT22;9269;50.838;12.094;2022-09-21T03:23:53;11.60;48.50
18287;DHT22;9269;50.838;12.094;2022-09-21T03:26:22;11.60;48.60
18287;DHT22;9269;50.838;12.094;2022-09-21T03:28:54;11.70;48.60
18287;DHT22;9269;50.838;12.094;2022-09-21T03:31:23;11.50;48.60
18287;DHT22;9269;50.838;12.094;2022-09-21T03:33:51;11.50;48.30
18287;DHT22;9269;50.838;12.094;2022-09-21T03:36:22;11.50;48.60
18287;DHT22;9269;50.838;12.094;2022-09-21T03:38:50;11.60;48.50
18287;DHT22;9269;50.838;12.094;2022-09-21T03:41:18;11.60;48.10
18287;DHT22;9269;50.838;12.094;2022-09-21T03:43:47;11.40;48.40
18287;DHT22;9269;50.838;12.094;2022-09-21T03:46:15;11.50;48.00
18287;DHT22;9269;50.838;12.094;2022-09-21T03:48:46;11.50;48.60
18287;DHT22;9269;50.838;12.094;2022-09-21T03:51:15;11.50;48.40
18287;DHT22;9269;50.838;12.094;2022-09-21T03:53:44;11.50;48.60
18287;DHT22;9269;50.838;12.094;2022-09-21T03:56:13;11.40;48.50
18287;DHT22;9269;50.838;12.094;2022-09-21T03:58:41;11.30;48.30
18287;DHT22;9269;50.838;12.094;2022-09-21T04:01:10;11.40;48.30
18287;DHT22;9269;50.838;12.094;2022-09-21T04:03:39;11.40;48.40
18287;DHT22;9269;50.838;12.094;2022-09-21T04:06:08;11.40;48.50
18287;DHT22;9269;50.838;12.094;2022-09-21T04:08:37;11.30;48.50
18287;DHT22;9269;50.838;12.094;2022-09-21T04:11:10;11.30;48.10
18287;DHT22;9269;50.838;12.094;2022-09-21T04:13:38;11.30;48.20
18287;DHT22;9269;50.838;12.094;2022-09-21T04:16:10;11.30;48.40
18287;DHT22;9269;50.838;12.094;2022-09-21T04:18:38;11.30;48.70
18287;DHT22;9269;50.838;12.094;2022-09-21T04:21:06;11.20;48.10
18287;DHT22;9269;50.838;12.094;2022-09-21T04:23:35;11.20;48.40
18287;DHT22;9269;50.838;12.094;2022-09-21T04:26:20;11.20;48.50
18287;DHT22;9269;50.838;12.094;2022-09-21T04:28:49;11.30;48.40
18287;DHT22;9269;50.838;12.094;2022-09-21T04:31:17;11.20;48.40
18287;DHT22;9269;50.838;12.094;2022-09-21T04:33:49;11.00;48.30
18287;DHT22;9269;50.838;12.094;2022-09-21T04:36:19;11.10;48.20
18287;DHT22;9269;50.838;12.094;2022-09-21T04:38:47;11.10;48.40
18287;DHT22;9269;50.838;12.094;2022-09-21T04:41:17;11.20;48.60
18287;DHT22;9269;50.838;12.094;2022-09-21T04:43:47;11.00;48.80
18287;DHT22;9269;50.838;12.094;2022-09-21T04:46:19;11.10;48.10
18287;DHT22;9269;50.838;12.094;2022-09-21T04:48:48;11.00;48.50
18287;DHT22;9269;50.838;12.094;2022-09-21T04:51:17;10.90;48.30
18287;DHT22;9269;50.838;12.094;2022-09-21T04:53:47;11.10;48.50
18287;DHT22;9269;50.838;12.094;2022-09-21T04:56:15;11.10;48.50
18287;DHT22;9269;50.838;12.094;2022-09-21T04:58:45;10.90;48.50
18287;DHT22;9269;50.838;12.094;2022-09-21T05:01:19;11.00;48.20
18287;DHT22;9269;50.838;12.094;2022-09-21T05:03:47;10.90;48.40
18287;DHT22;9269;50.838;12.094;2022-09-21T05:06:16;10.90;48.50
18287;DHT22;9269;50.838;12.094;2022-09-21T05:08:45;11.00;48.30
18287;DHT22;9269;50.838;12.094;2022-09-21T05:11:33;10.90;48.70
18287;DHT22;9269;50.838;12.094;2022-09-21T05:14:03;11.00;48.20
18287;DHT22;9269;50.838;12.094;2022-09-21T05:16:32;10.80;48.20
18287;DHT22;9269;50.838;12.094;2022-09-21T05:19:01;10.90;48.20
18287;DHT22;9269;50.838;12.094;2022-09-21T05:21:30;11.00;48.40
18287;DHT22;9269;50.838;12.094;2022-09-21T05:23:58;11.00;48.40
18287;DHT22;9269;50.838;12.094;2022-09-21T05:26:28;10.90;48.60
18287;DHT22;9269;50.838;12.094;2022-09-21T05:28:57;11.00;48.30
18287;DHT22;9269;50.838;12.094;2022-09-21T05:31:33;11.00;48.60
18287;DHT22;9269;50.838;12.094;2022-09-21T05:34:15;10.90;48.50
18287;DHT22;9269;50.838;12.094;2022-09-21T05:36:50;11.10;48.60
18287;DHT22;9269;50.838;12.094;2022-09-21T05:39:20;11.00;48.70
18287;DHT22;9269;50.838;12.094;2022-09-21T05:41:48;11.20;48.70
18287;DHT22;9269;50.838;12.094;2022-09-21T05:44:18;11.10;48.80
18287;DHT22;9269;50.838;12.094;2022-09-21T05:46:54;11.10;48.90
18287;DHT22;9269;50.838;12.094;2022-09-21T05:49:36;11.20;48.70
18287;DHT22;9269;50.838;12.094;2022-09-21T05:52:15;11.20;48.90
18287;DHT22;9269;50.838;12.094;2022-09-21T05:54:58;11.30;48.70
18287;DHT22;9269;50.838;12.094;2022-09-21T05:57:40;11.20;49.20
18287;DHT22;9269;50.838;12.094;2022-09-21T06:00:14;11.30;48.90
18287;DHT22;9269;50.838;12.094;2022-09-21T06:03:08;11.30;49.00
18287;DHT22;9269;50.838;12.094;2022-09-21T06:05:44;11.30;49.30
18287;DHT22;9269;50.838;12.094;2022-09-21T06:08:12;11.40;49.50
18287;DHT22;9269;50.838;12.094;2022-09-21T06:10:41;11.50;49.20
18287;DHT22;9269;50.838;12.094;2022-09-21T06:13:10;11.60;49.30
18287;DHT22;9269;50.838;12.094;2022-09-21T06:15:38;11.60;49.10
18287;DHT22;9269;50.838;12.094;2022-09-21T06:18:08;11.80;49.60
18287;DHT22;9269;50.838;12.094;2022-09-21T06:20:43;11.80;49.40
18287;DHT22;9269;50.838;12.094;2022-09-21T06:23:13;11.80;49.50
18287;DHT22;9269;50.838;12.094;2022-09-21T06:25:41;11.90;49.80
18287;DHT22;9269;50.838;12.094;2022-09-21T06:28:11;12.00;49.80
18287;DHT22;9269;50.838;12.094;2022-09-21T06:30:39;12.20;49.60
18287;DHT22;9269;50.838;12.094;2022-09-21T06:33:09;12.20;49.50
18287;DHT22;9269;50.838;12.094;2022-09-21T06:35:38;12.20;49.70
18287;DHT22;9269;50.838;12.094;2022-09-21T06:38:07;12.30;49.70
18287;DHT22;9269;50.838;12.094;2022-09-21T06:40:35;12.40;49.90
18287;DHT22;9269;50.838;12.094;2022-09-21T06:43:04;12.50;49.90
18287;DHT22;9269;50.838;12.094;2022-09-21T06:45:33;12.50;49.70
18287;DHT22;9269;50.838;12.094;2022-09-21T06:48:01;12.70;48.50
18287;DHT22;9269;50.838;12.094;2022-09-21T06:50:31;12.80;48.50
18287;DHT22;9269;50.838;12.094;2022-09-21T06:53:00;12.80;48.80
18287;DHT22;9269;50.838;12.094;2022-09-21T06:55:29;12.90;48.40
18287;DHT22;9269;50.838;12.094;2022-09-21T06:58:01;13.00;48.90
18287;DHT22;9269;50.838;12.094;2022-09-21T07:00:33;13.10;48.80
18287;DHT22;9269;50.838;12.094;2022-09-21T07:03:01;13.10;48.60
18287;DHT22;9269;50.838;12.094;2022-09-21T07:05:32;13.20;48.90
18287;DHT22;9269;50.838;12.094;2022-09-21T07:08:01;13.40;48.60
18287;DHT22;9269;50.838;12.094;2022-09-21T07:10:30;13.40;48.70
18287;DHT22;9269;50.838;12.094;2022-09-21T07:13:01;13.60;48.90
18287;DHT22;9269;50.838;12.094;2022-09-21T07:15:32;13.70;49.40
18287;DHT22;9269;50.838;12.094;2022-09-21T07:18:09;13.80;49.10
18287;DHT22;9269;50.838;12.094;2022-09-21T07:20:40;13.90;48.60
18287;DHT22;9269;50.838;12.094;2022-09-21T07:23:09;14.00;48.90
18287;DHT22;9269;50.838;12.094;2022-09-21T07:25:38;14.10;48.60
18287;DHT22;9269;50.838;12.094;2022-09-21T07:28:07;14.10;49.20
18287;DHT22;9269;50.838;12.094;2022-09-21T07:30:36;14.30;49.10
18287;DHT22;9269;50.838;12.094;2022-09-21T07:33:05;14.40;49.00
18287;DHT22;9269;50.838;12.094;2022-09-21T07:35:34;14.60;49.00
18287;DHT22;9269;50.838;12.094;2022-09-21T07:38:06;14.60;48.80
18287;DHT22;9269;50.838;12.094;2022-09-21T07:40:34;14.60;49.00
18287;DHT22;9269;50.838;12.094;2022-09-21T07:43:03;14.80;48.90
18287;DHT22;9269;50.838;12.094;2022-09-21T07:45:32;14.90;49.00
18287;DHT22;9269;50.838;12.094;2022-09-21T07:48:03;15.00;49.10
18287;DHT22;9269;50.838;12.094;2022-09-21T07:50:34;15.20;49.00
18287;DHT22;9269;50.838;12.094;2022-09-21T07:53:02;15.20;48.50
18287;DHT22;9269;50.838;12.094;2022-09-21T07:55:32;15.30;48.80
18287;DHT22;9269;50.838;12.094;2022-09-21T07:58:01;15.40;47.30
18287;DHT22;9269;50.838;12.094;2022-09-21T08:00:47;15.60;47.00
18287;DHT22;9269;50.838;12.094;2022-09-21T08:03:16;15.70;47.20
18287;DHT22;9269;50.838;12.094;2022-09-21T08:05:45;15.80;46.70
18287;DHT22;9269;50.838;12.094;2022-09-21T08:08:13;15.90;47.10
18287;DHT22;9269;50.838;12.094;2022-09-21T08:10:44;16.00;46.50
18287;DHT22;9269;50.838;12.094;2022-09-21T08:13:12;16.00;46.20
18287;DHT22;9269;50.838;12.094;2022-09-21T08:15:40;16.20;46.20
18287;DHT22;9269;50.838;12.094;2022-09-21T08:18:17;16.30;45.90
18287;DHT22;9269;50.838;12.094;2022-09-21T08:20:53;16.30;45.60
18287;DHT22;9269;50.838;12.094;2022-09-21T08:23:21;16.50;46.30
18287;DHT22;9269;50.838;12.094;2022-09-21T08:25:51;16.60;46.10
18287;DHT22;9269;50.838;12.094;2022-09-21T08:28:19;16.70;45.60
18287;DHT22;9269;50.838;12.094;2022-09-21T08:30:48;16.80;45.50
18287;DHT22;9269;50.838;12.094;2022-09-21T08:33:16;17.00;45.90
18287;DHT22;9269;50.838;12.094;2022-09-21T08:35:51;17.10;45.80
18287;DHT22;9269;50.838;12.094;2022-09-21T08:38:20;17.20;46.50
18287;DHT22;9269;50.838;12.094;2022-09-21T08:40:51;17.60;46.00
18287;DHT22;9269;50.838;12.094;2022-09-21T08:43:28;17.70;45.10
18287;DHT22;9269;50.838;12.094;2022-09-21T08:45:58;17.80;44.60
18287;DHT22;9269;50.838;12.094;2022-09-21T08:48:30;17.80;44.40
18287;DHT22;9269;50.838;12.094;2022-09-21T08:51:06;17.90;44.40
18287;DHT22;9269;50.838;12.094;2022-09-21T08:53:38;18.00;44.10
18287;DHT22;9269;50.838;12.094;2022-09-21T08:56:10;18.00;43.40
18287;DHT22;9269;50.838;12.094;2022-09-21T08:58:39;18.10;42.90
18287;DHT22;9269;50.838;12.094;2022-09-21T09:01:26;18.10;43.30
18287;DHT22;9269;50.838;12.094;2022-09-21T09:04:08;18.20;42.40
18287;DHT22;9269;50.838;12.094;2022-09-21T09:06:50;18.30;42.40
18287;DHT22;9269;50.838;12.094;2022-09-21T09:09:36;18.60;43.00
18287;DHT22;9269;50.838;12.094;2022-09-21T09:12:16;18.80;42.60
18287;DHT22;9269;50.838;12.094;2022-09-21T09:15:06;19.00;43.30
18287;DHT22;9269;50.838;12.094;2022-09-21T09:17:47;19.10;42.30
18287;DHT22;9269;50.838;12.094;2022-09-21T09:20:19;19.00;41.20
18287;DHT22;9269;50.838;12.094;2022-09-21T09:23:01;19.10;40.50
18287;DHT22;9269;50.838;12.094;2022-09-21T09:25:35;19.20;39.80
18287;DHT22;9269;50.838;12.094;2022-09-21T09:28:29;19.10;39.20
18287;DHT22;9269;50.838;12.094;2022-09-21T09:31:05;19.10;38.90
18287;DHT22;9269;50.838;12.094;2022-09-21T09:33:46;19.10;38.50
18287;DHT22;9269;50.838;12.094;2022-09-21T09:36:18;19.20;39.00
18287;DHT22;9269;50.838;12.094;2022-09-21T09:39:10;19.30;39.20
18287;DHT22;9269;50.838;12.094;2022-09-21T09:44:58;19.50;39.70
18287;DHT22;9269;50.838;12.094;2022-09-21T09:47:39;19.60;39.50
18287;DHT22;9269;50.838;12.094;2022-09-21T09:50:13;19.70;38.70
18287;DHT22;9269;50.838;12.094;2022-09-21T09:52:47;19.80;38.70
18287;DHT22;9269;50.838;12.094;2022-09-21T09:55:17;19.90;38.30
18287;DHT22;9269;50.838;12.094;2022-09-21T09:57:48;19.90;38.10
18287;DHT22;9269;50.838;12.094;2022-09-21T10:00:20;19.90;38.50
18287;DHT22;9269;50.838;12.094;2022-09-21T10:02:50;19.80;37.70
18287;DHT22;9269;50.838;12.094;2022-09-21T10:05:22;19.70;38.20
18287;DHT22;9269;50.838;12.094;2022-09-21T10:07:52;19.90;38.60
18287;DHT22;9269;50.838;12.094;2022-09-21T10:10:23;20.00;38.50
18287;DHT22;9269;50.838;12.094;2022-09-21T10:12:54;20.10;38.00
18287;DHT22;9269;50.838;12.094;2022-09-21T10:15:25;19.90;38.10
18287;DHT22;9269;50.838;12.094;2022-09-21T10:18:01;19.90;37.70
18287;DHT22;9269;50.838;12.094;2022-09-21T10:20:33;19.50;37.50
18287;DHT22;9269;50.838;12.094;2022-09-21T10:23:02;19.50;37.60
18287;DHT22;9269;50.838;12.094;2022-09-21T10:25:31;19.40;37.80
18287;DHT22;9269;50.838;12.094;2022-09-21T10:28:06;19.20;37.50
18287;DHT22;9269;50.838;12.094;2022-09-21T10:30:40;19.20;37.80
18287;DHT22;9269;50.838;12.094;2022-09-21T10:33:17;19.00;37.80
18287;DHT22;9269;50.838;12.094;2022-09-21T10:35:50;19.00;38.20
18287;DHT22;9269;50.838;12.094;2022-09-21T10:38:20;19.00;37.70
18287;DHT22;9269;50.838;12.094;2022-09-21T10:40:53;19.30;37.50
18287;DHT22;9269;50.838;12.094;2022-09-21T10:43:27;19.50;37.10
18287;DHT22;9269;50.838;12.094;2022-09-21T10:46:01;19.80;37.10
18287;DHT22;9269;50.838;12.094;2022-09-21T10:48:30;20.10;36.60
18287;DHT22;9269;50.838;12.094;2022-09-21T10:50:58;20.40;36.10
18287;DHT22;9269;50.838;12.094;2022-09-21T10:53:30;20.50;35.50
18287;DHT22;9269;50.838;12.094;2022-09-21T10:56:01;20.50;33.60
18287;DHT22;9269;50.838;12.094;2022-09-21T10:59:11;20.50;33.80
18287;DHT22;9269;50.838;12.094;2022-09-21T11:01:46;20.70;34.40
18287;DHT22;9269;50.838;12.094;2022-09-21T11:04:19;20.50;34.30
18287;DHT22;9269;50.838;12.094;2022-09-21T11:06:52;20.40;34.20
18287;DHT22;9269;50.838;12.094;2022-09-21T11:09:25;20.40;34.60
18287;DHT22;9269;50.838;12.094;2022-09-21T11:12:00;20.40;33.10
18287;DHT22;9269;50.838;12.094;2022-09-21T11:14:42;20.40;33.70
18287;DHT22;9269;50.838;12.094;2022-09-21T11:17:18;20.30;34.10
18287;DHT22;9269;50.838;12.094;2022-09-21T11:19:52;20.20;33.80
18287;DHT22;9269;50.838;12.094;2022-09-21T11:22:26;20.10;34.70
18287;DHT22;9269;50.838;12.094;2022-09-21T11:25:05;20.10;33.90
18287;DHT22;9269;50.838;12.094;2022-09-21T11:27:38;20.10;33.20
18287;DHT22;9269;50.838;12.094;2022-09-21T11:30:11;20.20;33.20
18287;DHT22;9269;50.838;12.094;2022-09-21T11:32:59;20.10;33.50
18287;DHT22;9269;50.838;12.094;2022-09-21T11:35:42;20.20;33.60
18287;DHT22;9269;50.838;12.094;2022-09-21T11:38:22;20.30;32.80
18287;DHT22;9269;50.838;12.094;2022-09-21T11:41:16;20.40;32.00
18287;DHT22;9269;50.838;12.094;2022-09-21T11:44:00;20.40;32.40
18287;DHT22;9269;50.838;12.094;2022-09-21T11:46:41;20.40;32.90
18287;DHT22;9269;50.838;12.094;2022-09-21T11:49:30;20.30;32.20
18287;DHT22;9269;50.838;12.094;2022-09-21T11:52:12;20.20;32.50
18287;DHT22;9269;50.838;12.094;2022-09-21T11:54:59;20.20;33.40
18287;DHT22;9269;50.838;12.094;2022-09-21T11:57:34;20.10;33.20
18287;DHT22;9269;50.838;12.094;2022-09-21T12:00:11;20.00;33.60
18287;DHT22;9269;50.838;12.094;2022-09-21T12:03:23;19.90;33.50
18287;DHT22;9269;50.838;12.094;2022-09-21T12:06:16;19.90;33.70
18287;DHT22;9269;50.838;12.094;2022-09-21T12:08:58;19.90;33.90
18287;DHT22;9269;50.838;12.094;2022-09-21T12:11:37;19.80;33.50
18287;DHT22;9269;50.838;12.094;2022-09-21T12:14:19;19.60;34.00
18287;DHT22;9269;50.838;12.094;2022-09-21T12:16:54;19.70;34.30
18287;DHT22;9269;50.838;12.094;2022-09-21T12:19:28;19.60;34.40
18287;DHT22;9269;50.838;12.094;2022-09-21T12:22:05;19.60;34.30
18287;DHT22;9269;50.838;12.094;2022-09-21T12:24:38;19.60;33.90
18287;DHT22;9269;50.838;12.094;2022-09-21T12:27:20;19.60;34.00
18287;DHT22;9269;50.838;12.094;2022-09-21T12:29:54;19.60;34.40
18287;DHT22;9269;50.838;12.094;2022-09-21T12:32:32;19.50;33.60
18287;DHT22;9269;50.838;12.094;2022-09-21T12:35:11;19.60;33.30
18287;DHT22;9269;50.838;12.094;2022-09-21T12:37:46;19.60;33.20
18287;DHT22;9269;50.838;12.094;2022-09-21T12:40:20;19.70;33.70
18287;DHT22;9269;50.838;12.094;2022-09-21T12:42:56;19.60;32.80
18287;DHT22;9269;50.838;12.094;2022-09-21T12:45:31;19.70;33.00
18287;DHT22;9269;50.838;12.094;2022-09-21T12:48:08;19.80;32.60
18287;DHT22;9269;50.838;12.094;2022-09-21T12:50:43;19.90;32.90
18287;DHT22;9269;50.838;12.094;2022-09-21T12:53:17;20.20;32.30
18287;DHT22;9269;50.838;12.094;2022-09-21T12:55:51;20.40;32.10
18287;DHT22;9269;50.838;12.094;2022-09-21T12:58:52;20.60;31.60
18287;DHT22;9269;50.838;12.094;2022-09-21T13:01:29;20.70;31.60
18287;DHT22;9269;50.838;12.094;2022-09-21T13:04:27;20.90;31.30
18287;DHT22;9269;50.838;12.094;2022-09-21T13:07:31;20.70;31.30
18287;DHT22;9269;50.838;12.094;2022-09-21T13:10:18;20.70;31.20
18287;DHT22;9269;50.838;12.094;2022-09-21T13:12:52;20.50;31.60
18287;DHT22;9269;50.838;12.094;2022-09-21T13:15:23;20.70;31.70
18287;DHT22;9269;50.838;12.094;2022-09-21T13:17:58;20.80;30.50
18287;DHT22;9269;50.838;12.094;2022-09-21T13:20:33;20.90;29.60
18287;DHT22;9269;50.838;12.094;2022-09-21T13:23:02;21.10;29.30
18287;DHT22;9269;50.838;12.094;2022-09-21T13:25:33;21.20;28.50
18287;DHT22;9269;50.838;12.094;2022-09-21T13:28:17;21.20;28.90
18287;DHT22;9269;50.838;12.094;2022-09-21T13:30:47;21.20;29.40
18287;DHT22;9269;50.838;12.094;2022-09-21T13:33:31;21.10;29.80
18287;DHT22;9269;50.838;12.094;2022-09-21T13:36:31;21.10;30.20
18287;DHT22;9269;50.838;12.094;2022-09-21T13:39:14;21.00;28.90
18287;DHT22;9269;50.838;12.094;2022-09-21T13:41:45;21.00;29.20
18287;DHT22;9269;50.838;12.094;2022-09-21T13:44:40;21.20;29.70
18287;DHT22;9269;50.838;12.094;2022-09-21T13:47:09;21.30;29.10
18287;DHT22;9269;50.838;12.094;2022-09-21T13:49:49;21.30;28.70
18287;DHT22;9269;50.838;12.094;2022-09-21T13:52:26;21.30;28.90
18287;DHT22;9269;50.838;12.094;2022-09-21T13:54:59;21.40;28.90
18287;DHT22;9269;50.838;12.094;2022-09-21T13:57:32;21.50;29.40
18287;DHT22;9269;50.838;12.094;2022-09-21T14:00:35;21.60;28.40
18287;DHT22;9269;50.838;12.094;2022-09-21T14:03:17;21.60;28.80
18287;DHT22;9269;50.838;12.094;2022-09-21T14:05:48;21.60;28.60
18287;DHT22;9269;50.838;12.094;2022-09-21T14:08:21;21.70;29.60
18287;DHT22;9269;50.838;12.094;2022-09-21T14:10:52;21.60;29.30
18287;DHT22;9269;50.838;12.094;2022-09-21T14:13:28;21.70;29.80
18287;DHT22;9269;50.838;12.094;2022-09-21T14:16:26;21.60;30.20
18287;DHT22;9269;50.838;12.094;2022-09-21T14:22:35;21.40;30.20
18287;DHT22;9269;50.838;12.094;2022-09-21T14:25:48;21.10;29.70
18287;DHT22;9269;50.838;12.094;2022-09-21T14:28:27;21.00;30.20
18287;DHT22;9269;50.838;12.094;2022-09-21T14:31:04;20.80;31.50
18287;DHT22;9269;50.838;12.094;2022-09-21T14:33:42;20.60;31.70
18287;DHT22;9269;50.838;12.094;2022-09-21T14:36:16;20.40;31.70
18287;DHT22;9269;50.838;12.094;2022-09-21T14:38:50;20.40;32.00
18287;DHT22;9269;50.838;12.094;2022-09-21T14:41:22;20.30;32.10
18287;DHT22;9269;50.838;12.094;2022-09-21T14:43:53;20.20;32.60
18287;DHT22;9269;50.838;12.094;2022-09-21T14:49:29;20.10;32.50
18287;DHT22;9269;50.838;12.094;2022-09-21T14:52:06;20.10;32.70
18287;DHT22;9269;50.838;12.094;2022-09-21T14:54:47;20.00;32.70
18287;DHT22;9269;50.838;12.094;2022-09-21T14:57:30;20.00;32.50
18287;DHT22;9269;50.838;12.094;2022-09-21T15:00:16;20.00;32.60
18287;DHT22;9269;50.838;12.094;2022-09-21T15:03:00;19.90;32.10
18287;DHT22;9269;50.838;12.094;2022-09-21T15:05:35;19.90;32.10
18287;DHT22;9269;50.838;12.094;2022-09-21T15:08:29;19.80;32.30
18287;DHT22;9269;50.838;12.094;2022-09-21T15:11:25;19.80;32.30
18287;DHT22;9269;50.838;12.094;2022-09-21T15:14:12;19.70;32.20
18287;DHT22;9269;50.838;12.094;2022-09-21T15:16:45;19.70;32.40
18287;DHT22;9269;50.838;12.094;2022-09-21T15:19:22;19.70;32.70
18287;DHT22;9269;50.838;12.094;2022-09-21T15:21:52;19.70;32.50
18287;DHT22;9269;50.838;12.094;2022-09-21T15:24:26;19.70;32.80
18287;DHT22;9269;50.838;12.094;2022-09-21T15:27:03;19.70;32.80
18287;DHT22;9269;50.838;12.094;2022-09-21T15:29:36;19.70;32.40
18287;DHT22;9269;50.838;12.094;2022-09-21T15:32:07;19.70;32.70
18287;DHT22;9269;50.838;12.094;2022-09-21T15:34:46;19.70;32.20
18287;DHT22;9269;50.838;12.094;2022-09-21T15:37:18;19.80;32.00
18287;DHT22;9269;50.838;12.094;2022-09-21T15:39:58;19.80;32.00
18287;DHT22;9269;50.838;12.094;2022-09-21T15:42:29;19.80;31.70
18287;DHT22;9269;50.838;12.094;2022-09-21T15:45:12;19.80;31.90
18287;DHT22;9269;50.838;12.094;2022-09-21T15:47:44;19.80;32.00
18287;DHT22;9269;50.838;12.094;2022-09-21T15:50:13;19.60;32.20
18287;DHT22;9269;50.838;12.094;2022-09-21T15:52:48;19.60;32.30
18287;DHT22;9269;50.838;12.094;2022-09-21T15:55:21;19.60;32.60
18287;DHT22;9269;50.838;12.094;2022-09-21T15:57:53;19.50;32.50
18287;DHT22;9269;50.838;12.094;2022-09-21T16:00:25;19.40;32.80
18287;DHT22;9269;50.838;12.094;2022-09-21T16:03:05;19.30;33.00
18287;DHT22;9269;50.838;12.094;2022-09-21T16:05:43;19.20;33.20
18287;DHT22;9269;50.838;12.094;2022-09-21T16:08:25;19.20;33.40
18287;DHT22;9269;50.838;12.094;2022-09-21T16:11:15;19.10;33.50
18287;DHT22;9269;50.838;12.094;2022-09-21T16:13:44;19.00;33.90
18287;DHT22;9269;50.838;12.094;2022-09-21T16:17:22;18.90;33.70
18287;DHT22;9269;50.838;12.094;2022-09-21T16:20:17;18.80;34.00
18287;DHT22;9269;50.838;12.094;2022-09-21T16:22:48;18.70;34.40
18287;DHT22;9269;50.838;12.094;2022-09-21T16:25:24;18.60;34.00
18287;DHT22;9269;50.838;12.094;2022-09-21T16:27:56;18.50;34.50